Wallsend, Kentucky
Current Conditions -  °F | °C
As of 4:15 PM on Friday 24 Oct 2014 (Local Time) from K1A6 Reporting Station
Clear Clear  
Wind Chill: 67°   Ceiling: Unl
Heat Index: 67°   Visibility: 10mi
Dew Point: 42°   Wind: 0mph
Humidity: 41%   Direction: NA
Pressure: 30.04"   Gusts: NA
Location:  36.7417°N, 83.6911°W
Report Text: K1A6 242015Z AUTO 00000KT 10SM CLR 19/06 A3004 RMK AO2 T01920055
Loading
Personal Weather Stations






























Interactive Weather Map
Tropical Storm Tracking
New forecast layout! Learn more

10-Day Weather Forecast

Advertisements
Track Severe Weather on mobile